Time;durP1;ratioP1;P1;durP2;ratioP2;P2;SDS_P1;SDS_P2;PMS_P1;PMS_P2;Temp;Humidity;BMP_temperature;BMP_pressure;BME280_temperature;BME280_humidity;BME280_pressure;Samples;Min_cycle;Max_cycle;Signal;HPM_P1;HPM_P2
2024/03/26 00:00:39;;;;;;;11.73;7.80;;;7.80;77.60;;;;;;5074599;28;20281;-80
2024/03/26 00:03:04;;;;;;;14.73;7.95;;;7.90;77.70;;;;;;5081290;28;20044;-81
2024/03/26 00:05:30;;;;;;;13.18;8.23;;;7.80;77.70;;;;;;5062687;28;20106;-81
2024/03/26 00:07:56;;;;;;;12.32;8.30;;;7.80;77.70;;;;;;5055894;28;20037;-80
2024/03/26 00:10:21;;;;;;;11.07;8.05;;;7.90;77.90;;;;;;5082536;28;20060;-80
2024/03/26 00:12:47;;;;;;;12.77;8.35;;;7.90;77.70;;;;;;5065094;28;20060;-81
2024/03/26 00:15:13;;;;;;;11.30;6.88;;;7.80;77.70;;;;;;5063903;28;20464;-81
2024/03/26 00:17:38;;;;;;;11.18;7.68;;;7.80;77.60;;;;;;5078872;28;20118;-81
2024/03/26 00:20:04;;;;;;;12.55;7.35;;;7.80;77.70;;;;;;5078577;28;20570;-81
2024/03/26 00:22:30;;;;;;;14.10;7.88;;;7.80;77.80;;;;;;5073657;28;20040;-79
2024/03/26 00:24:56;;;;;;;14.93;7.78;;;7.80;77.80;;;;;;5083568;28;20052;-80
2024/03/26 00:27:22;;;;;;;13.68;7.28;;;7.70;77.90;;;;;;5078949;28;20036;-81
2024/03/26 00:29:47;;;;;;;10.85;7.10;;;7.70;78.10;;;;;;5079489;28;20031;-81
2024/03/26 00:32:13;;;;;;;14.40;7.32;;;7.70;77.90;;;;;;5075807;28;20028;-79
2024/03/26 00:34:39;;;;;;;10.32;6.70;;;7.80;77.90;;;;;;5076159;28;20048;-80
2024/03/26 00:37:05;;;;;;;12.75;7.25;;;7.70;78.00;;;;;;5075142;28;20072;-82
2024/03/26 00:39:30;;;;;;;15.32;7.07;;;7.70;78.10;;;;;;5063752;28;20434;-79
2024/03/26 00:41:56;;;;;;;13.70;7.30;;;7.70;78.20;;;;;;5080191;28;20527;-82
2024/03/26 00:44:22;;;;;;;12.88;6.82;;;7.70;78.30;;;;;;5079664;28;20023;-81
2024/03/26 00:46:47;;;;;;;11.73;7.38;;;7.70;78.30;;;;;;5077290;28;20040;-81
2024/03/26 00:49:13;;;;;;;12.27;7.28;;;7.60;78.30;;;;;;5074927;28;20025;-81
2024/03/26 00:51:44;;;;;;;12.35;7.70;;;7.60;78.30;;;;;;5070888;28;20127;-81
2024/03/26 00:54:13;;;;;;;12.10;7.38;;;7.60;78.40;;;;;;5078994;28;20020;-80
2024/03/26 00:56:39;;;;;;;12.43;7.38;;;7.60;78.50;;;;;;5079767;28;20373;-81
2024/03/26 00:59:04;;;;;;;13.07;7.63;;;7.60;78.50;;;;;;5060408;28;20031;-80
2024/03/26 01:01:30;;;;;;;15.50;8.13;;;7.60;78.60;;;;;;5082025;28;20044;-82
2024/03/26 01:03:55;;;;;;;13.52;7.72;;;7.60;78.60;;;;;;5081088;28;20316;-80
2024/03/26 01:06:21;;;;;;;11.55;7.25;;;7.60;78.70;;;;;;5082178;28;20389;-81
2024/03/26 01:08:47;;;;;;;11.40;7.03;;;7.60;78.80;;;;;;5056211;28;20119;-81
2024/03/26 01:11:13;;;;;;;14.65;7.28;;;7.60;78.70;;;;;;5082994;28;20020;-80
2024/03/26 01:13:40;;;;;;;12.68;7.63;;;7.60;78.50;;;;;;5073520;28;20052;-79
2024/03/26 01:16:06;;;;;;;13.02;7.30;;;7.60;78.60;;;;;;5068918;28;20036;-81
2024/03/26 01:18:31;;;;;;;13.23;7.20;;;7.60;78.70;;;;;;5069481;28;20035;-80
2024/03/26 01:20:57;;;;;;;12.50;7.53;;;7.60;78.60;;;;;;5064190;28;20059;-81
2024/03/26 01:23:23;;;;;;;12.63;6.80;;;7.60;78.50;;;;;;5077870;28;20071;-80
2024/03/26 01:25:48;;;;;;;11.65;6.95;;;7.60;78.70;;;;;;5075904;28;20043;-80
2024/03/26 01:28:14;;;;;;;15.13;7.35;;;7.60;78.60;;;;;;5075339;28;20036;-80
2024/03/26 01:30:40;;;;;;;12.98;7.40;;;7.60;78.50;;;;;;5080795;28;20042;-80
2024/03/26 01:33:05;;;;;;;11.13;7.07;;;7.60;78.40;;;;;;5071757;28;20032;-80
2024/03/26 01:35:31;;;;;;;11.05;6.78;;;7.60;78.40;;;;;;5059221;28;20059;-81
2024/03/26 01:37:57;;;;;;;10.88;6.47;;;7.60;78.50;;;;;;5078106;28;20052;-80
2024/03/26 01:40:26;;;;;;;11.27;6.72;;;7.60;78.50;;;;;;5075643;28;20034;-81
2024/03/26 01:42:51;;;;;;;12.45;7.13;;;7.60;78.20;;;;;;5080887;28;20048;-81
2024/03/26 01:45:17;;;;;;;14.93;6.70;;;7.50;78.10;;;;;;5071100;28;20542;-81
2024/03/26 01:47:44;;;;;;;11.75;6.43;;;7.60;78.10;;;;;;5073638;28;20111;-81
2024/03/26 01:50:14;;;;;;;11.00;6.68;;;7.60;78.20;;;;;;5076150;28;20552;-81
2024/03/26 01:52:40;;;;;;;12.60;7.07;;;7.60;78.20;;;;;;5074084;28;20041;-81
2024/03/26 01:55:07;;;;;;;9.27;5.95;;;7.60;78.10;;;;;;5060913;28;20096;-81
2024/03/26 01:57:36;;;;;;;13.63;6.93;;;7.60;78.30;;;;;;5072805;28;20142;-81
2024/03/26 02:00:03;;;;;;;12.18;6.60;;;7.50;78.20;;;;;;5056843;28;20058;-81
2024/03/26 02:02:29;;;;;;;12.82;6.40;;;7.50;78.30;;;;;;5071299;28;20048;-81
2024/03/26 02:04:55;;;;;;;14.00;6.68;;;7.50;78.20;;;;;;5079974;28;20588;-80
2024/03/26 02:07:20;;;;;;;11.10;6.15;;;7.50;78.30;;;;;;5074686;28;20050;-81
2024/03/26 02:09:49;;;;;;;13.85;6.63;;;7.50;78.30;;;;;;5077192;28;20468;-82
2024/03/26 02:12:15;;;;;;;11.73;5.90;;;7.40;78.20;;;;;;5069756;28;20047;-81
2024/03/26 02:14:41;;;;;;;10.20;6.35;;;7.40;78.20;;;;;;5070218;28;20020;-81
2024/03/26 02:17:06;;;;;;;11.23;6.47;;;7.40;78.20;;;;;;5059569;28;20058;-81
2024/03/26 02:19:32;;;;;;;10.15;5.88;;;7.40;78.20;;;;;;5067915;28;20377;-80
2024/03/26 02:21:58;;;;;;;10.80;5.85;;;7.40;78.10;;;;;;5059588;28;20040;-80
2024/03/26 02:24:24;;;;;;;11.60;5.90;;;7.40;78.00;;;;;;5076487;28;20047;-81
2024/03/26 02:26:50;;;;;;;10.38;6.32;;;7.40;78.00;;;;;;5060317;28;20036;-81
2024/03/26 02:29:15;;;;;;;11.55;5.75;;;7.30;78.10;;;;;;5081190;28;20027;-81
2024/03/26 02:31:41;;;;;;;10.68;6.28;;;7.40;78.30;;;;;;5075650;28;20044;-81
2024/03/26 02:34:06;;;;;;;12.02;6.32;;;7.30;78.20;;;;;;5076443;28;20488;-81
2024/03/26 02:36:32;;;;;;;11.80;6.43;;;7.30;78.40;;;;;;5078743;28;20079;-81
2024/03/26 02:38:58;;;;;;;11.25;6.47;;;7.30;78.20;;;;;;5082562;28;20047;-80
2024/03/26 02:41:24;;;;;;;13.02;6.43;;;7.30;78.30;;;;;;5071128;28;20028;-81
2024/03/26 02:43:50;;;;;;;11.75;6.63;;;7.30;78.40;;;;;;5078642;28;20087;-79
2024/03/26 02:46:16;;;;;;;12.60;6.47;;;7.30;78.60;;;;;;5074240;28;20059;-81
2024/03/26 02:48:42;;;;;;;9.48;5.63;;;7.20;78.40;;;;;;5050721;28;20143;-82
2024/03/26 02:51:08;;;;;;;10.85;6.28;;;7.20;78.60;;;;;;5058942;28;20491;-81
2024/03/26 02:53:33;;;;;;;14.20;6.68;;;7.20;78.60;;;;;;5065889;28;20437;-81
2024/03/26 02:55:59;;;;;;;11.02;6.30;;;7.30;78.70;;;;;;5069996;28;20039;-82
2024/03/26 02:58:24;;;;;;;9.88;5.93;;;7.20;78.70;;;;;;5076938;28;20579;-81
2024/03/26 03:00:50;;;;;;;9.82;5.97;;;7.20;78.80;;;;;;5074183;28;20473;-82
2024/03/26 03:03:16;;;;;;;13.60;6.70;;;7.20;78.90;;;;;;5072344;28;20036;-79
2024/03/26 03:05:41;;;;;;;11.23;5.90;;;7.30;78.70;;;;;;5070580;28;20071;-81
2024/03/26 03:08:07;;;;;;;11.65;5.95;;;7.20;78.60;;;;;;5072789;28;20059;-82
2024/03/26 03:10:33;;;;;;;11.52;5.70;;;7.30;78.80;;;;;;5073956;28;20193;-80
2024/03/26 03:12:59;;;;;;;9.82;6.00;;;7.30;78.70;;;;;;5070700;28;20040;-82
2024/03/26 03:15:24;;;;;;;10.80;5.30;;;7.30;78.70;;;;;;5078176;28;20024;-81
2024/03/26 03:17:50;;;;;;;11.10;5.88;;;7.30;78.50;;;;;;5074616;28;20043;-83
2024/03/26 03:20:16;;;;;;;8.68;5.70;;;7.30;78.50;;;;;;5072681;28;20024;-83
2024/03/26 03:22:45;;;;;;;11.38;5.40;;;7.30;78.40;;;;;;5076884;28;20127;-82
2024/03/26 03:25:10;;;;;;;10.07;5.30;;;7.30;78.10;;;;;;5058818;28;20036;-81
2024/03/26 03:27:36;;;;;;;10.88;6.03;;;7.40;78.10;;;;;;5074920;28;20046;-82
2024/03/26 03:30:02;;;;;;;10.25;5.15;;;7.40;78.10;;;;;;5057102;28;20028;-82
2024/03/26 03:32:28;;;;;;;9.48;5.65;;;7.40;77.90;;;;;;5079051;28;20047;-81
2024/03/26 03:34:53;;;;;;;9.27;5.53;;;7.40;77.80;;;;;;5077079;28;20036;-81
2024/03/26 03:37:19;;;;;;;12.63;6.43;;;7.30;77.70;;;;;;5075665;28;20060;-81
2024/03/26 03:39:45;;;;;;;10.85;5.80;;;7.30;77.50;;;;;;5079711;28;20035;-81
2024/03/26 03:42:11;;;;;;;20.35;6.60;;;7.20;77.60;;;;;;5074909;28;20040;-81
2024/03/26 03:44:36;;;;;;;10.77;5.47;;;7.10;77.80;;;;;;5076803;28;20035;-81
2024/03/26 03:47:03;;;;;;;9.55;6.03;;;7.10;78.00;;;;;;5071316;28;20037;-82
2024/03/26 03:49:29;;;;;;;10.15;5.10;;;7.00;78.30;;;;;;5067490;28;20746;-81
2024/03/26 03:51:56;;;;;;;12.88;6.50;;;7.00;78.30;;;;;;5069021;28;20043;-80
2024/03/26 03:54:22;;;;;;;10.57;6.00;;;7.00;78.40;;;;;;5069432;28;20046;-81
2024/03/26 03:56:48;;;;;;;10.30;5.70;;;7.00;78.70;;;;;;5063685;28;20096;-81
2024/03/26 03:59:14;;;;;;;10.05;6.22;;;6.90;78.80;;;;;;5071493;28;20033;-80
2024/03/26 04:01:39;;;;;;;11.57;5.78;;;6.90;78.90;;;;;;5079211;28;21013;-83
2024/03/26 04:04:05;;;;;;;12.52;5.72;;;6.80;79.00;;;;;;5070177;28;20050;-80
2024/03/26 04:06:31;;;;;;;10.45;5.55;;;6.90;79.10;;;;;;5076515;28;20024;-83
2024/03/26 04:08:57;;;;;;;7.38;5.30;;;6.90;79.20;;;;;;5102151;28;20042;-82
2024/03/26 04:11:22;;;;;;;10.82;5.22;;;6.80;79.30;;;;;;5101880;28;20038;-83
2024/03/26 04:13:51;;;;;;;9.73;5.53;;;6.80;79.40;;;;;;5101087;28;20032;-83
2024/03/26 04:16:17;;;;;;;11.82;5.75;;;6.80;79.40;;;;;;5063062;28;20040;-81
2024/03/26 04:18:43;;;;;;;8.30;5.20;;;6.80;79.40;;;;;;5072790;28;20051;-81
2024/03/26 04:21:09;;;;;;;11.13;5.53;;;6.70;79.40;;;;;;5086601;28;20493;-82
2024/03/26 04:23:34;;;;;;;10.13;5.93;;;6.70;79.50;;;;;;5072159;28;20067;-81
2024/03/26 04:26:00;;;;;;;11.35;5.43;;;6.60;79.60;;;;;;5072051;28;20055;-82
2024/03/26 04:28:29;;;;;;;11.68;6.18;;;6.60;79.80;;;;;;5075110;28;20042;-81
2024/03/26 04:30:55;;;;;;;10.20;5.72;;;6.60;79.80;;;;;;5072944;28;20067;-81
2024/03/26 04:33:21;;;;;;;10.45;5.70;;;6.50;79.90;;;;;;5077116;28;20059;-82
2024/03/26 04:35:47;;;;;;;9.93;6.47;;;6.50;80.10;;;;;;5077976;28;20163;-81
2024/03/26 04:38:13;;;;;;;11.00;6.40;;;6.40;80.20;;;;;;5079759;28;20028;-81
2024/03/26 04:40:39;;;;;;;11.05;6.20;;;6.30;80.40;;;;;;5078361;28;20424;-81
2024/03/26 04:43:08;;;;;;;12.07;6.22;;;6.20;80.60;;;;;;5076623;28;20040;-81
2024/03/26 04:45:34;;;;;;;9.68;5.70;;;6.20;80.80;;;;;;5077680;28;20024;-80
2024/03/26 04:48:01;;;;;;;11.43;6.47;;;6.10;80.90;;;;;;5078456;28;20036;-82
2024/03/26 04:50:26;;;;;;;10.07;5.60;;;6.10;81.20;;;;;;5070010;28;20023;-79
2024/03/26 04:52:53;;;;;;;11.40;6.40;;;6.00;81.50;;;;;;5079932;28;20365;-81
2024/03/26 04:55:19;;;;;;;10.82;6.03;;;6.00;81.70;;;;;;5062956;28;20032;-82
2024/03/26 04:57:46;;;;;;;16.92;6.55;;;5.90;81.60;;;;;;5073526;28;20039;-81
2024/03/26 05:00:13;;;;;;;10.30;6.57;;;5.90;81.80;;;;;;5072711;28;20044;-83
2024/03/26 05:02:40;;;;;;;11.68;6.35;;;5.90;81.80;;;;;;5048595;28;20037;-80
2024/03/26 05:05:07;;;;;;;10.75;6.20;;;5.90;81.90;;;;;;5070126;28;20040;-81
2024/03/26 05:07:33;;;;;;;9.82;5.75;;;5.90;82.10;;;;;;5072115;28;20463;-81
2024/03/26 05:09:59;;;;;;;12.40;6.95;;;5.90;82.00;;;;;;5071828;28;20091;-81
2024/03/26 05:12:26;;;;;;;10.93;6.20;;;5.80;81.90;;;;;;5076091;28;20066;-81
2024/03/26 05:14:52;;;;;;;9.48;6.10;;;5.80;82.10;;;;;;5069499;28;20024;-81
2024/03/26 05:17:17;;;;;;;12.02;6.05;;;5.80;82.20;;;;;;5072820;28;20305;-81
2024/03/26 05:19:43;;;;;;;10.38;5.97;;;5.80;82.40;;;;;;5071870;28;20046;-80
2024/03/26 05:22:09;;;;;;;9.38;5.53;;;5.70;82.40;;;;;;5074995;28;20484;-81
2024/03/26 05:24:34;;;;;;;11.05;5.50;;;5.80;82.60;;;;;;5071958;28;20057;-80
2024/03/26 05:27:01;;;;;;;9.73;5.90;;;5.70;82.70;;;;;;5072001;28;20043;-80
2024/03/26 05:29:26;;;;;;;10.70;6.38;;;5.80;82.70;;;;;;5071477;28;20484;-81
2024/03/26 05:31:52;;;;;;;12.48;6.60;;;5.80;82.70;;;;;;5067459;28;20028;-80
2024/03/26 05:34:18;;;;;;;15.52;7.15;;;5.70;82.70;;;;;;5071582;28;20063;-79
2024/03/26 05:36:43;;;;;;;12.02;6.53;;;5.70;82.60;;;;;;5052246;28;20058;-79
2024/03/26 05:39:11;;;;;;;12.82;6.60;;;5.70;82.60;;;;;;5073029;28;20036;-79
2024/03/26 05:41:40;;;;;;;13.52;7.80;;;5.60;82.70;;;;;;5051756;28;20083;-81
2024/03/26 05:44:05;;;;;;;13.13;7.57;;;5.60;83.00;;;;;;5092246;28;20032;-81
2024/03/26 05:46:33;;;;;;;13.32;7.60;;;5.60;83.20;;;;;;5081413;28;20021;-81
2024/03/26 05:48:59;;;;;;;15.65;6.97;;;5.60;83.20;;;;;;5093875;28;20051;-81
2024/03/26 05:51:24;;;;;;;13.02;7.38;;;5.60;83.30;;;;;;5091814;28;20333;-81
2024/03/26 05:53:50;;;;;;;14.50;8.27;;;5.60;83.40;;;;;;5085700;28;20027;-80
2024/03/26 05:56:15;;;;;;;11.38;7.10;;;5.60;83.50;;;;;;5073939;28;20047;-81
2024/03/26 05:58:41;;;;;;;13.27;7.10;;;5.60;83.60;;;;;;5071649;28;20039;-82
2024/03/26 06:01:07;;;;;;;9.82;6.78;;;5.70;83.60;;;;;;5078608;28;20039;-84
2024/03/26 06:03:33;;;;;;;12.30;7.55;;;5.70;83.50;;;;;;5077575;28;20067;-80
2024/03/26 06:05:59;;;;;;;12.45;6.93;;;5.80;83.40;;;;;;5082035;28;20415;-82
2024/03/26 06:08:24;;;;;;;12.98;7.20;;;5.90;83.30;;;;;;5077109;28;20444;-90
2024/03/26 06:10:50;;;;;;;12.00;7.03;;;5.90;83.10;;;;;;5071013;28;20054;-78
2024/03/26 06:13:16;;;;;;;13.25;7.85;;;5.90;82.90;;;;;;5058073;28;20028;-80
2024/03/26 06:15:41;;;;;;;13.40;7.22;;;6.00;82.80;;;;;;5078558;28;20429;-83
2024/03/26 06:18:07;;;;;;;11.10;6.43;;;6.00;82.70;;;;;;5086969;28;20032;-81
2024/03/26 06:20:33;;;;;;;12.80;7.28;;;6.10;82.70;;;;;;5084962;28;20028;-82
2024/03/26 06:22:59;;;;;;;12.23;6.75;;;6.10;82.60;;;;;;5084503;28;20040;-78
2024/03/26 06:25:25;;;;;;;11.65;7.30;;;6.20;82.60;;;;;;5074887;28;20041;-80
2024/03/26 06:27:52;;;;;;;11.30;6.85;;;6.20;82.40;;;;;;5073738;28;20040;-87
2024/03/26 06:30:18;;;;;;;11.00;7.30;;;6.30;82.50;;;;;;5060303;28;20105;-89
2024/03/26 06:32:45;;;;;;;12.07;6.97;;;6.40;82.50;;;;;;5069907;28;20064;-85
2024/03/26 06:35:10;;;;;;;11.98;6.00;;;6.40;82.40;;;;;;5085185;28;20103;-81
2024/03/26 06:37:36;;;;;;;11.30;6.43;;;6.60;82.30;;;;;;5088916;28;20123;-80
2024/03/26 06:40:03;;;;;;;9.25;5.85;;;6.60;82.20;;;;;;5082703;28;20107;-80
2024/03/26 06:42:28;;;;;;;10.88;6.22;;;6.60;82.20;;;;;;5069586;28;20070;-80
2024/03/26 06:44:55;;;;;;;12.73;6.53;;;6.70;82.10;;;;;;5069574;28;20524;-77
2024/03/26 06:47:20;;;;;;;12.95;6.05;;;6.80;81.80;;;;;;5058176;28;20036;-85
2024/03/26 06:49:47;;;;;;;12.13;6.28;;;6.80;81.70;;;;;;5085190;28;20391;-87
2024/03/26 06:52:13;;;;;;;12.48;7.35;;;6.90;81.70;;;;;;5088672;28;20532;-80
2024/03/26 06:54:39;;;;;;;11.15;6.43;;;7.00;81.50;;;;;;5086637;28;20020;-89
2024/03/26 06:57:05;;;;;;;10.82;6.20;;;7.00;81.40;;;;;;5083112;28;20534;-81
2024/03/26 06:59:32;;;;;;;10.82;6.43;;;7.10;81.40;;;;;;5078114;28;20033;-84
2024/03/26 07:02:02;;;;;;;10.50;6.25;;;7.20;80.90;;;;;;5078118;28;20036;-82
2024/03/26 07:04:29;;;;;;;10.05;6.63;;;7.30;80.90;;;;;;5085977;28;20100;-85
2024/03/26 07:06:54;;;;;;;12.15;6.65;;;7.30;80.90;;;;;;5074010;28;20467;-82
2024/03/26 07:09:20;;;;;;;14.98;6.35;;;7.40;80.60;;;;;;5081011;28;20174;-83
2024/03/26 07:11:45;;;;;;;15.65;7.28;;;7.40;80.50;;;;;;5064791;28;20425;-78
2024/03/26 07:14:12;;;;;;;11.85;6.15;;;7.40;80.10;;;;;;5082070;28;20036;-84
2024/03/26 07:16:38;;;;;;;10.48;6.10;;;7.50;80.40;;;;;;5079143;28;20028;-81
2024/03/26 07:19:04;;;;;;;12.02;6.30;;;7.50;80.70;;;;;;5081535;28;20039;-78
2024/03/26 07:21:29;;;;;;;13.65;7.10;;;7.60;80.70;;;;;;5076875;28;20044;-79
2024/03/26 07:26:24;;;;;;;12.77;6.50;;;7.70;80.10;;;;;;5046560;28;20037;-78
2024/03/26 07:28:51;;;;;;;12.23;6.82;;;7.70;80.10;;;;;;5056541;28;20174;-77
2024/03/26 07:31:17;;;;;;;12.43;6.30;;;7.80;80.00;;;;;;5054035;28;20040;-79
2024/03/26 07:33:43;;;;;;;13.57;6.20;;;7.90;79.90;;;;;;5049997;28;20377;-78
2024/03/26 07:36:08;;;;;;;10.73;5.95;;;7.90;79.90;;;;;;5055493;28;20383;-78
2024/03/26 07:38:34;;;;;;;10.02;6.18;;;8.00;79.70;;;;;;5040191;28;20032;-78
2024/03/26 07:40:59;;;;;;;11.90;6.43;;;8.00;79.70;;;;;;5053461;28;20051;-78
2024/03/26 07:43:25;;;;;;;12.68;6.45;;;8.10;79.80;;;;;;5054135;28;20061;-79
2024/03/26 07:45:51;;;;;;;12.52;6.63;;;8.10;79.70;;;;;;5056737;28;20079;-78
2024/03/26 07:48:16;;;;;;;12.32;6.07;;;8.20;79.70;;;;;;5043217;28;20031;-77
2024/03/26 07:50:42;;;;;;;10.65;6.63;;;8.30;79.40;;;;;;5056474;28;20104;-78
2024/03/26 07:53:07;;;;;;;11.20;6.38;;;8.30;79.40;;;;;;5052668;28;20040;-76
2024/03/26 07:55:33;;;;;;;9.88;6.47;;;8.40;79.50;;;;;;5054899;28;20029;-77
2024/03/26 07:57:59;;;;;;;11.70;6.82;;;8.50;79.20;;;;;;5053643;28;20028;-77
2024/03/26 08:00:24;;;;;;;11.35;6.30;;;8.60;79.40;;;;;;5047789;28;20023;-76
2024/03/26 08:02:50;;;;;;;10.27;5.90;;;8.60;79.10;;;;;;5052754;28;20047;-78
2024/03/26 08:05:16;;;;;;;12.35;6.47;;;8.60;79.20;;;;;;5054779;28;20028;-77
2024/03/26 08:07:42;;;;;;;11.35;6.15;;;8.70;79.10;;;;;;5046247;28;20128;-77
2024/03/26 08:10:08;;;;;;;12.50;6.38;;;8.70;79.20;;;;;;5058805;28;20039;-77
2024/03/26 08:12:33;;;;;;;12.60;5.97;;;8.70;79.20;;;;;;5053429;28;20151;-78
2024/03/26 08:14:59;;;;;;;13.07;5.68;;;8.80;79.30;;;;;;5053969;28;20020;-79
2024/03/26 08:17:24;;;;;;;11.38;6.50;;;8.90;79.10;;;;;;5046105;28;20428;-79
2024/03/26 08:19:51;;;;;;;11.07;5.78;;;8.90;79.30;;;;;;5054134;28;20017;-77
2024/03/26 08:22:16;;;;;;;12.40;6.25;;;9.00;78.70;;;;;;5049937;28;20044;-79
2024/03/26 08:24:42;;;;;;;9.68;5.78;;;9.00;78.20;;;;;;5055218;28;20034;-77
2024/03/26 08:27:08;;;;;;;10.73;5.38;;;9.10;77.70;;;;;;5048867;28;20056;-77
2024/03/26 08:29:34;;;;;;;9.35;5.25;;;9.20;77.40;;;;;;5055112;28;20102;-78
2024/03/26 08:32:00;;;;;;;11.30;5.85;;;9.30;77.10;;;;;;5045686;28;20657;-77
2024/03/26 08:34:25;;;;;;;10.70;5.00;;;9.40;76.50;;;;;;5060046;28;20036;-77
2024/03/26 08:36:51;;;;;;;10.05;5.70;;;9.50;76.10;;;;;;5052865;28;20040;-77
2024/03/26 08:39:17;;;;;;;11.88;6.03;;;9.60;76.10;;;;;;5057845;28;20044;-77
2024/03/26 08:41:43;;;;;;;10.85;5.63;;;9.80;76.30;;;;;;5050454;28;20032;-77
2024/03/26 08:44:08;;;;;;;9.20;5.47;;;9.90;76.20;;;;;;5057517;28;20093;-78
2024/03/26 08:46:34;;;;;;;10.85;5.50;;;10.10;75.70;;;;;;5052879;28;20032;-79
2024/03/26 08:49:00;;;;;;;8.88;4.85;;;10.20;75.60;;;;;;5045410;28;20075;-82
2024/03/26 08:51:29;;;;;;;10.55;5.65;;;10.40;74.80;;;;;;5054330;28;20021;-80
2024/03/26 08:53:55;;;;;;;11.18;5.70;;;10.50;74.80;;;;;;5054749;28;20059;-79
2024/03/26 08:56:21;;;;;;;11.50;5.43;;;10.60;74.00;;;;;;5049207;28;20362;-80
2024/03/26 08:58:51;;;;;;;11.77;5.72;;;10.70;73.50;;;;;;5058328;28;20066;-83
2024/03/26 09:01:16;;;;;;;12.82;5.57;;;10.80;73.30;;;;;;5052296;28;20033;-82
2024/03/26 09:03:42;;;;;;;11.05;5.53;;;10.90;72.70;;;;;;5058013;28;20048;-81
2024/03/26 09:06:08;;;;;;;12.40;5.22;;;11.00;72.30;;;;;;5055135;28;20044;-77
2024/03/26 09:08:34;;;;;;;12.45;6.35;;;11.10;71.60;;;;;;5062491;28;20093;-82
2024/03/26 09:11:00;;;;;;;8.80;4.55;;;11.20;71.20;;;;;;5052608;28;20127;-83
2024/03/26 09:13:25;;;;;;;11.93;4.85;;;11.20;71.10;;;;;;5057301;28;20032;-80
2024/03/26 09:15:51;;;;;;;11.35;5.03;;;11.30;71.60;;;;;;5052006;28;20058;-84
2024/03/26 09:18:17;;;;;;;11.43;5.95;;;11.50;71.20;;;;;;5053231;28;20131;-84
2024/03/26 09:20:42;;;;;;;11.23;6.03;;;11.60;70.60;;;;;;5057836;28;20025;-84
2024/03/26 09:23:08;;;;;;;10.68;5.00;;;11.70;70.60;;;;;;5041645;28;20457;-82
2024/03/26 09:25:34;;;;;;;9.18;4.88;;;11.80;69.70;;;;;;5030154;28;20338;-80
2024/03/26 09:28:00;;;;;;;11.10;5.13;;;11.90;69.90;;;;;;5034320;28;20036;-81
2024/03/26 09:30:27;;;;;;;8.70;4.40;;;11.90;68.90;;;;;;5059176;28;20020;-79
2024/03/26 09:32:56;;;;;;;8.55;5.15;;;11.90;69.70;;;;;;5054050;28;20044;-77
2024/03/26 09:35:22;;;;;;;10.80;5.05;;;12.10;69.30;;;;;;5059490;28;20032;-79
2024/03/26 09:37:47;;;;;;;8.07;4.55;;;12.10;68.60;;;;;;5067888;28;20020;-79
2024/03/26 09:40:13;;;;;;;8.50;4.63;;;12.10;69.20;;;;;;5070719;28;20039;-78
2024/03/26 09:42:42;;;;;;;8.23;4.63;;;12.40;69.10;;;;;;5076105;28;20060;-79
2024/03/26 09:45:12;;;;;;;9.52;5.03;;;12.60;68.70;;;;;;5064782;28;20059;-77
2024/03/26 09:47:40;;;;;;;8.95;5.07;;;12.80;68.80;;;;;;5054946;28;20037;-81
2024/03/26 09:50:07;;;;;;;10.23;5.07;;;13.10;67.30;;;;;;5060487;28;20039;-79
2024/03/26 09:52:34;;;;;;;9.23;5.03;;;13.50;67.20;;;;;;5059095;28;20553;-80
2024/03/26 09:55:06;;;;;;;9.57;5.22;;;14.00;65.90;;;;;;5065427;28;20740;-79
2024/03/26 09:57:32;;;;;;;11.60;5.20;;;14.30;64.30;;;;;;5058438;28;20638;-82
2024/03/26 09:59:57;;;;;;;9.60;4.75;;;14.60;63.70;;;;;;5061960;28;20033;-81
2024/03/26 10:02:23;;;;;;;11.50;5.35;;;14.70;63.80;;;;;;5053777;28;20128;-80
2024/03/26 10:04:49;;;;;;;9.40;4.70;;;15.10;62.90;;;;;;5063625;28;20030;-80
2024/03/26 10:07:14;;;;;;;10.27;5.15;;;15.20;61.90;;;;;;5059698;28;20332;-78
2024/03/26 10:09:40;;;;;;;10.73;4.88;;;15.50;61.30;;;;;;5058281;28;20099;-77
2024/03/26 10:12:10;;;;;;;9.20;5.00;;;15.50;59.70;;;;;;5053681;28;20055;-80
2024/03/26 10:14:35;;;;;;;10.02;5.40;;;15.50;61.40;;;;;;5065043;28;20176;-80
2024/03/26 10:17:01;;;;;;;9.43;5.03;;;15.50;60.60;;;;;;5041990;28;20041;-78
2024/03/26 10:19:27;;;;;;;9.77;4.80;;;15.60;60.70;;;;;;5068047;28;20149;-79
2024/03/26 10:21:53;;;;;;;10.00;5.00;;;15.70;60.50;;;;;;5055188;28;20418;-78
2024/03/26 10:24:19;;;;;;;9.27;5.47;;;15.70;60.30;;;;;;5053570;28;20095;-79
2024/03/26 10:26:45;;;;;;;10.63;5.47;;;15.80;59.90;;;;;;5055255;28;20059;-77
2024/03/26 10:29:11;;;;;;;8.23;5.00;;;16.00;59.50;;;;;;5054749;28;20043;-79
2024/03/26 10:31:39;;;;;;;9.40;4.68;;;15.80;59.50;;;;;;5055518;28;20178;-84
2024/03/26 10:34:04;;;;;;;8.60;4.45;;;16.00;60.70;;;;;;5059104;28;20483;-82
2024/03/26 10:36:31;;;;;;;11.40;5.18;;;16.00;60.90;;;;;;5056954;28;20031;-81
2024/03/26 10:38:57;;;;;;;8.80;5.03;;;16.10;59.80;;;;;;5056989;28;20067;-85
2024/03/26 10:41:30;;;;;;;9.20;4.43;;;16.30;58.60;;;;;;5053324;28;20121;-84
2024/03/26 10:43:57;;;;;;;11.40;5.22;;;16.40;59.30;;;;;;5055406;28;20059;-81
2024/03/26 10:46:23;;;;;;;9.85;4.57;;;16.50;58.40;;;;;;5056222;28;20024;-85
2024/03/26 10:48:50;;;;;;;9.18;4.82;;;16.50;58.40;;;;;;5056115;28;20081;-85
2024/03/26 10:51:17;;;;;;;10.57;5.50;;;16.60;57.90;;;;;;5059243;28;20473;-85
2024/03/26 10:53:43;;;;;;;10.55;5.45;;;16.60;58.30;;;;;;5057057;28;20016;-86
2024/03/26 10:56:10;;;;;;;10.80;5.40;;;16.60;58.10;;;;;;5055922;28;20104;-82
2024/03/26 10:58:36;;;;;;;9.68;5.13;;;16.60;59.40;;;;;;5060376;28;20028;-80
2024/03/26 11:01:04;;;;;;;8.95;4.93;;;16.70;58.10;;;;;;5049999;28;20500;-87
2024/03/26 11:03:32;;;;;;;8.32;4.97;;;16.30;59.50;;;;;;5059649;28;20040;-87
2024/03/26 11:05:58;;;;;;;9.30;4.80;;;16.50;60.40;;;;;;5055481;28;20025;-83
2024/03/26 11:08:24;;;;;;;13.45;5.57;;;16.60;58.80;;;;;;5048122;28;20630;-86
2024/03/26 11:10:58;;;;;;;9.77;5.20;;;16.60;58.60;;;;;;5048800;28;20032;-81
2024/03/26 11:13:35;;;;;;;10.30;4.97;;;16.30;59.40;;;;;;5069605;28;20028;-83
2024/03/26 11:16:07;;;;;;;9.82;4.88;;;16.00;59.90;;;;;;5059981;28;20051;-86
2024/03/26 11:18:38;;;;;;;9.85;4.90;;;15.90;60.40;;;;;;5054036;28;20032;-81
2024/03/26 11:21:10;;;;;;;8.45;4.72;;;16.00;59.60;;;;;;5063036;28;20535;-82
2024/03/26 11:23:42;;;;;;;8.88;4.65;;;15.90;60.50;;;;;;5050925;28;20053;-84
2024/03/26 11:26:07;;;;;;;9.70;4.90;;;15.90;60.90;;;;;;5056490;28;20036;-86
2024/03/26 11:28:33;;;;;;;9.77;5.15;;;16.10;59.70;;;;;;5060858;28;20162;-79
2024/03/26 11:31:01;;;;;;;9.18;5.38;;;16.10;58.20;;;;;;5063616;28;20299;-79
2024/03/26 11:33:30;;;;;;;9.98;5.20;;;16.00;58.90;;;;;;5047655;28;20037;-84
2024/03/26 11:35:57;;;;;;;9.45;4.78;;;16.10;59.70;;;;;;5046852;28;20028;-80
2024/03/26 11:38:24;;;;;;;9.50;5.57;;;16.20;60.40;;;;;;5051449;28;20229;-84
2024/03/26 11:40:51;;;;;;;9.43;4.97;;;16.50;58.00;;;;;;5073454;28;20032;-83
2024/03/26 11:43:17;;;;;;;9.25;5.07;;;16.30;58.70;;;;;;5053982;28;20037;-82
2024/03/26 11:45:43;;;;;;;8.82;5.43;;;16.30;59.00;;;;;;5051604;28;20692;-84
2024/03/26 11:48:08;;;;;;;13.32;5.10;;;16.30;59.40;;;;;;5059358;28;20189;-90
2024/03/26 11:50:35;;;;;;;11.48;5.60;;;16.10;59.60;;;;;;5071622;28;20059;-78
2024/03/26 11:53:01;;;;;;;10.75;5.57;;;16.00;59.30;;;;;;5052707;28;20185;-89
2024/03/26 11:55:27;;;;;;;8.85;5.15;;;16.00;60.00;;;;;;5034560;28;20025;-84
2024/03/26 11:57:54;;;;;;;9.75;5.03;;;15.90;60.10;;;;;;5043133;28;20067;-86
2024/03/26 12:00:19;;;;;;;9.52;5.55;;;15.90;59.50;;;;;;5041512;28;20155;-87
2024/03/26 12:02:45;;;;;;;11.77;6.30;;;15.90;60.40;;;;;;5053890;28;20061;-80
2024/03/26 12:05:11;;;;;;;11.80;5.53;;;15.80;61.00;;;;;;5055232;28;20040;-82
2024/03/26 12:07:39;;;;;;;10.02;5.57;;;15.80;61.50;;;;;;5058456;28;20023;-87
2024/03/26 12:10:05;;;;;;;10.60;5.60;;;15.70;61.60;;;;;;5058475;28;20020;-80
2024/03/26 12:12:38;;;;;;;11.40;6.03;;;15.80;62.10;;;;;;5058180;28;20469;-90
2024/03/26 12:15:12;;;;;;;10.15;5.05;;;15.80;61.00;;;;;;5069538;28;20479;-85
2024/03/26 12:17:42;;;;;;;12.63;6.90;;;15.80;61.60;;;;;;5046409;28;20044;-84
2024/03/26 12:20:09;;;;;;;8.68;5.50;;;16.00;62.00;;;;;;5068039;28;20035;-76
2024/03/26 12:22:35;;;;;;;12.15;6.05;;;16.10;62.60;;;;;;5044723;28;20044;-78
2024/03/26 12:25:08;;;;;;;11.35;5.35;;;16.00;60.70;;;;;;5026588;28;20036;-76
2024/03/26 12:27:34;;;;;;;11.35;5.28;;;15.80;60.80;;;;;;5027066;28;20060;-80
2024/03/26 12:30:03;;;;;;;10.20;5.90;;;15.60;62.30;;;;;;5056759;28;20039;-80
2024/03/26 12:32:29;;;;;;;9.43;5.40;;;15.80;62.40;;;;;;5049700;28;20688;-77
2024/03/26 12:34:54;;;;;;;10.27;5.15;;;16.00;63.50;;;;;;5060163;28;20025;-78
2024/03/26 12:37:26;;;;;;;10.27;5.43;;;16.00;62.80;;;;;;5055485;28;20175;-77
2024/03/26 12:39:51;;;;;;;9.80;5.50;;;16.20;61.90;;;;;;5050719;28;20025;-77
2024/03/26 12:42:17;;;;;;;9.73;5.55;;;16.10;61.10;;;;;;5048933;28;20039;-75